Timisoara/Traian Vuia

Airport
ICAO code: 
LRTR
IATA Code: 
TSR
Summary
ICAO Region: 
EUR
Territory: 
Location: 
Ghiroda, Timiș County
Serving: 
Timișoara
Elevation: 
354 ft
Coordinates: 
Aerial View: 
45° 48' 36" N, 21° 20' 18" E
Metar
Observation
LRTR 191230Z 16005KT 0800 R29/1000D FZFG OVC002 M02/M02 Q1031
Station
Timisoara
Date/Time
2022-01-19 12:30:00
Wind direction
160°
Wind speed
05 kts
Lowest cloud amount
overcast
Temperature
-2°C
Dew point
-2°C
Humidity
100%
QNH
1031 hPa
Weather condition
n/a

Description

International airport serving Timosoara.

Climatology

Humid “subtropical” climate (Köppen climate classification Cfa) - characterized by hot, humid summers and cool winters. Significant amounts of precipitation occur in all seasons in most areas. Winter rainfall (and sometimes snowfall) is associated with large storms that the westerlies steer from west to east. Most summer rainfall occurs during thunderstorms.

Runways

Designator Length Width Surface Rops
11/29 3500 45 CON Yes/Yes
Airport map: 
Aerial View: 

SKYbrary Partners:

Safety knowledge contributed by: